Time;durP1;ratioP1;P1;durP2;ratioP2;P2;SDS_P1;SDS_P2;PMS_P1;PMS_P2;Temp;Humidity;BMP_temperature;BMP_pressure;BME280_temperature;BME280_humidity;BME280_pressure;Samples;Min_cycle;Max_cycle;Signal;HPM_P1;HPM_P2
2022/01/10 00:00:01;;;;;;;44.50;30.05;;;14.90;66.30;;;;;;5016109;28;20095;-22
2022/01/10 00:02:26;;;;;;;44.15;28.85;;;14.90;66.30;;;;;;5016877;28;20137;-21
2022/01/10 00:04:52;;;;;;;44.13;30.08;;;14.90;66.40;;;;;;5016005;28;20052;-19
2022/01/10 00:07:18;;;;;;;40.78;28.95;;;15.00;66.50;;;;;;5016727;28;20046;-19
2022/01/10 00:09:43;;;;;;;42.35;28.60;;;14.90;66.40;;;;;;5016606;28;20081;-19
2022/01/10 00:12:10;;;;;;;41.65;28.52;;;15.00;66.60;;;;;;5015754;28;20053;-19
2022/01/10 00:14:36;;;;;;;39.55;28.45;;;14.90;66.40;;;;;;5016851;28;20053;-18
2022/01/10 00:17:02;;;;;;;39.88;28.60;;;14.90;66.40;;;;;;5016160;28;20522;-19
2022/01/10 00:19:27;;;;;;;37.78;25.88;;;14.90;66.30;;;;;;5016599;28;20495;-21
2022/01/10 00:21:53;;;;;;;40.55;27.65;;;14.90;66.40;;;;;;5015680;28;20069;-22
2022/01/10 00:24:19;;;;;;;39.70;26.58;;;15.00;66.40;;;;;;5014759;28;20152;-22
2022/01/10 00:26:44;;;;;;;40.10;26.83;;;15.00;66.50;;;;;;5016778;28;20049;-19
2022/01/10 00:29:10;;;;;;;38.72;27.95;;;15.00;66.30;;;;;;5016029;28;20071;-21
2022/01/10 00:31:35;;;;;;;40.17;28.65;;;15.00;66.30;;;;;;5015963;28;20050;-19
2022/01/10 00:34:01;;;;;;;35.38;26.38;;;15.00;66.30;;;;;;5016328;28;20042;-21
2022/01/10 00:36:26;;;;;;;37.63;26.05;;;15.00;66.30;;;;;;5017179;28;20540;-20
2022/01/10 00:38:52;;;;;;;35.20;24.05;;;15.00;66.40;;;;;;5016137;28;20080;-21
2022/01/10 00:41:18;;;;;;;31.25;23.27;;;15.00;66.50;;;;;;5016961;28;20046;-19
2022/01/10 00:43:46;;;;;;;33.53;23.33;;;15.00;66.40;;;;;;5010761;28;20392;-20
2022/01/10 00:46:12;;;;;;;35.25;25.05;;;15.00;66.50;;;;;;5016037;28;20152;-21
2022/01/10 00:48:38;;;;;;;32.53;24.80;;;15.00;66.40;;;;;;5016947;28;20053;-21
2022/01/10 00:51:03;;;;;;;30.67;22.83;;;15.00;66.50;;;;;;5015617;28;20038;-18
2022/01/10 00:53:29;;;;;;;32.03;23.65;;;14.90;66.50;;;;;;5015651;28;20046;-19
2022/01/10 00:55:54;;;;;;;32.42;22.77;;;14.90;66.70;;;;;;5015391;28;20065;-21
2022/01/10 00:58:20;;;;;;;31.38;22.42;;;14.90;66.90;;;;;;5016289;28;20053;-19
2022/01/10 01:00:46;;;;;;;30.05;22.83;;;14.90;66.80;;;;;;5016353;28;20060;-21
2022/01/10 01:03:11;;;;;;;32.80;22.90;;;14.90;66.80;;;;;;5015126;28;20045;-21
2022/01/10 01:05:42;;;;;;;28.67;20.63;;;14.90;66.70;;;;;;5016301;28;20053;-21
2022/01/10 01:08:09;;;;;;;29.58;21.02;;;14.90;67.00;;;;;;5015182;28;20052;-21
2022/01/10 01:15:45;;;;;;;31.48;22.38;;;14.80;67.20;;;;;;5016320;28;20064;-21
2022/01/10 01:18:18;;;;;;;27.50;20.40;;;14.80;67.20;;;;;;5015351;28;20084;-20
2022/01/10 01:23:59;;;;;;;27.85;21.20;;;14.80;67.10;;;;;;5015160;28;20057;-20
2022/01/10 01:26:14;;;;;;;27.45;21.15;;;14.80;67.20;;;;;;4995843;28;20101;-21
2022/01/10 01:28:39;;;;;;;27.92;21.20;;;14.80;67.10;;;;;;4995807;28;20096;-21
2022/01/10 01:31:05;;;;;;;26.35;21.02;;;14.80;67.10;;;;;;4995729;28;20038;-21
2022/01/10 01:33:31;;;;;;;26.55;20.33;;;14.80;66.90;;;;;;4996384;28;20053;-20
2022/01/10 01:35:56;;;;;;;24.48;18.23;;;14.80;66.90;;;;;;4996101;28;20503;-20
2022/01/10 01:38:22;;;;;;;26.08;20.05;;;14.80;67.00;;;;;;4995913;28;20050;-19
2022/01/10 01:41:10;;;;;;;26.13;19.88;;;14.80;67.10;;;;;;4995926;28;20046;-21
2022/01/10 01:43:35;;;;;;;24.98;18.38;;;14.80;67.10;;;;;;4988417;28;20050;-20
2022/01/10 01:46:01;;;;;;;25.20;19.42;;;14.90;66.90;;;;;;5006579;28;20041;-20
2022/01/10 01:48:26;;;;;;;24.95;19.08;;;14.80;67.10;;;;;;5015744;28;20128;-21
2022/01/10 01:50:52;;;;;;;22.48;16.90;;;14.80;67.10;;;;;;5015500;28;20041;-21
2022/01/10 01:53:18;;;;;;;22.00;17.42;;;14.80;67.10;;;;;;5014865;28;20052;-20
2022/01/10 01:55:44;;;;;;;25.33;19.73;;;14.80;67.10;;;;;;5015464;28;20040;-19
2022/01/10 01:58:10;;;;;;;23.65;18.02;;;14.80;67.10;;;;;;5014681;28;20069;-21
2022/01/10 02:00:35;;;;;;;20.42;16.70;;;14.80;67.00;;;;;;5014822;28;20491;-19
2022/01/10 02:03:01;;;;;;;24.88;18.20;;;14.80;67.10;;;;;;5014807;28;20099;-19
2022/01/10 02:05:27;;;;;;;25.88;18.48;;;14.80;67.30;;;;;;5015185;28;20042;-19
2022/01/10 02:07:52;;;;;;;21.15;16.15;;;14.80;67.30;;;;;;5015165;28;20050;-19
2022/01/10 02:10:19;;;;;;;20.02;16.10;;;14.80;67.30;;;;;;5014614;28;20046;-20
2022/01/10 02:12:44;;;;;;;20.48;16.05;;;14.80;67.20;;;;;;5013728;28;20061;-21
2022/01/10 02:15:26;;;;;;;23.92;17.08;;;14.70;67.40;;;;;;5014703;28;20045;-20
2022/01/10 02:17:59;;;;;;;20.42;15.77;;;14.80;67.30;;;;;;5013965;28;20054;-21
2022/01/10 02:20:24;;;;;;;20.98;16.20;;;14.80;67.40;;;;;;5006027;28;20057;-19
2022/01/10 02:22:50;;;;;;;18.33;14.77;;;14.70;67.30;;;;;;5014885;28;20115;-20
2022/01/10 02:25:15;;;;;;;19.58;16.33;;;14.70;67.40;;;;;;5014349;28;20046;-19
2022/01/10 02:27:41;;;;;;;22.33;16.60;;;14.80;67.20;;;;;;5014869;28;20057;-18
2022/01/10 02:30:07;;;;;;;19.80;15.50;;;14.80;67.30;;;;;;5012889;28;20164;-19
2022/01/10 02:32:34;;;;;;;18.98;14.88;;;14.70;67.40;;;;;;5014509;28;20127;-21
2022/01/10 02:35:00;;;;;;;19.42;15.88;;;14.80;67.50;;;;;;5014343;28;20495;-22
2022/01/10 02:37:33;;;;;;;17.35;14.25;;;14.80;67.40;;;;;;5014616;28;20042;-19
2022/01/10 02:40:02;;;;;;;19.00;15.30;;;14.70;67.30;;;;;;5012699;28;20495;-22
2022/01/10 02:42:27;;;;;;;19.05;14.77;;;14.70;67.50;;;;;;5013350;28;20413;-21
2022/01/10 02:44:53;;;;;;;17.05;14.32;;;14.70;67.40;;;;;;5013698;28;20121;-21
2022/01/10 02:47:19;;;;;;;18.08;13.88;;;14.70;67.50;;;;;;5011113;28;20080;-21
2022/01/10 02:49:44;;;;;;;16.55;13.45;;;14.70;67.40;;;;;;5013925;28;20041;-20
2022/01/10 02:52:10;;;;;;;17.67;13.48;;;14.70;67.40;;;;;;5013974;28;20049;-20
2022/01/10 02:54:35;;;;;;;17.27;13.38;;;14.70;67.40;;;;;;5014906;28;20054;-21
2022/01/10 02:57:01;;;;;;;16.02;13.48;;;14.80;67.50;;;;;;5013951;28;20046;-24
2022/01/10 02:59:26;;;;;;;17.48;13.93;;;14.70;67.50;;;;;;5014760;28;20067;-21
2022/01/10 03:01:52;;;;;;;18.15;14.07;;;14.70;67.50;;;;;;5014373;28;20084;-20
2022/01/10 03:04:19;;;;;;;15.02;12.75;;;14.70;67.50;;;;;;5013743;28;20084;-19
2022/01/10 03:06:45;;;;;;;16.63;13.73;;;14.70;67.50;;;;;;5013910;28;20054;-20
2022/01/10 03:09:11;;;;;;;15.00;12.45;;;14.70;67.50;;;;;;5005284;28;20065;-19
2022/01/10 03:11:37;;;;;;;16.70;12.90;;;14.70;67.50;;;;;;5014347;28;20061;-19
2022/01/10 03:14:03;;;;;;;15.70;12.80;;;14.80;67.50;;;;;;5014136;28;20163;-18
2022/01/10 03:16:29;;;;;;;15.65;12.13;;;14.80;67.30;;;;;;5014389;28;20144;-20
2022/01/10 03:18:55;;;;;;;13.90;11.60;;;14.70;67.40;;;;;;5014442;28;20042;-21
2022/01/10 03:21:20;;;;;;;16.00;12.15;;;14.70;67.50;;;;;;5013968;28;20410;-22
2022/01/10 03:23:51;;;;;;;14.60;11.73;;;14.70;67.50;;;;;;5015034;28;20056;-19
2022/01/10 03:26:17;;;;;;;14.30;11.93;;;14.80;67.40;;;;;;5017081;28;20104;-20
2022/01/10 03:28:42;;;;;;;14.50;12.18;;;14.80;67.30;;;;;;5018171;28;20050;-21
2022/01/10 03:31:08;;;;;;;13.70;11.88;;;14.70;67.40;;;;;;5017375;28;20045;-21
2022/01/10 03:33:33;;;;;;;13.13;11.60;;;14.80;67.50;;;;;;5013410;28;20466;-20
2022/01/10 03:35:59;;;;;;;13.70;11.60;;;14.70;67.40;;;;;;5014164;28;20494;-21
2022/01/10 03:38:25;;;;;;;13.20;11.82;;;14.70;67.50;;;;;;5017022;28;20072;-19
2022/01/10 03:40:50;;;;;;;13.80;10.75;;;14.80;67.30;;;;;;5018000;28;20419;-20
2022/01/10 03:43:16;;;;;;;14.13;11.10;;;14.70;67.50;;;;;;5017379;28;20042;-20
2022/01/10 03:45:43;;;;;;;13.68;11.60;;;14.70;67.50;;;;;;5017907;28;20053;-21
2022/01/10 03:48:09;;;;;;;12.55;11.15;;;14.80;67.30;;;;;;5017343;28;20466;-20
2022/01/10 03:50:34;;;;;;;11.63;10.38;;;14.80;67.30;;;;;;5017773;28;20084;-21
2022/01/10 03:53:00;;;;;;;11.10;10.00;;;14.80;67.20;;;;;;5017566;28;20072;-21
2022/01/10 03:55:26;;;;;;;13.13;11.07;;;14.80;67.10;;;;;;5017133;28;20402;-19
2022/01/10 03:57:51;;;;;;;12.75;10.95;;;14.80;67.10;;;;;;5017188;28;20125;-21
2022/01/10 04:00:17;;;;;;;11.10;10.00;;;14.80;67.10;;;;;;5016890;28;20044;-21
2022/01/10 04:02:49;;;;;;;11.45;10.25;;;14.80;67.20;;;;;;5016456;28;20525;-21
2022/01/10 04:05:15;;;;;;;11.23;10.02;;;14.80;67.10;;;;;;5016983;28;20038;-21
2022/01/10 04:07:41;;;;;;;10.15;9.15;;;14.90;67.00;;;;;;5016760;28;20038;-21
2022/01/10 04:10:07;;;;;;;11.40;10.15;;;14.90;66.90;;;;;;5016293;28;20046;-19
2022/01/10 04:12:32;;;;;;;10.10;9.05;;;14.90;66.90;;;;;;5013920;28;20076;-21
2022/01/10 04:14:58;;;;;;;9.63;8.65;;;14.90;66.80;;;;;;5016280;28;20034;-20
2022/01/10 04:17:23;;;;;;;10.48;9.32;;;14.80;66.90;;;;;;5015849;28;20073;-21
2022/01/10 04:19:49;;;;;;;10.82;9.73;;;14.80;67.20;;;;;;5016739;28;20136;-20
2022/01/10 04:22:15;;;;;;;9.70;8.57;;;14.80;67.20;;;;;;5015689;28;20076;-21
2022/01/10 04:24:40;;;;;;;9.20;8.15;;;14.90;66.90;;;;;;5016399;28;20096;-21
2022/01/10 04:27:06;;;;;;;9.27;8.38;;;14.80;67.00;;;;;;5014467;28;20129;-19
2022/01/10 04:29:31;;;;;;;9.38;8.48;;;14.80;67.00;;;;;;5013887;28;20041;-21
2022/01/10 04:31:57;;;;;;;11.85;9.10;;;14.90;66.90;;;;;;5015362;28;20053;-20
2022/01/10 04:34:22;;;;;;;8.68;7.88;;;14.90;66.90;;;;;;5014818;28;20069;-22
2022/01/10 04:36:48;;;;;;;7.95;7.25;;;14.90;66.90;;;;;;5013972;28;20137;-20
2022/01/10 04:39:14;;;;;;;8.20;7.40;;;14.90;66.70;;;;;;5014878;28;20065;-21
2022/01/10 04:41:39;;;;;;;8.43;7.53;;;15.00;66.70;;;;;;5015317;28;20060;-21
2022/01/10 04:44:06;;;;;;;9.77;7.85;;;14.90;66.60;;;;;;5015254;28;20042;-20
2022/01/10 04:46:32;;;;;;;10.65;8.88;;;14.90;66.60;;;;;;5015724;28;20108;-21
2022/01/10 04:48:58;;;;;;;8.23;7.40;;;14.90;66.50;;;;;;5015081;28;20041;-21
2022/01/10 04:51:24;;;;;;;7.88;7.18;;;14.90;66.60;;;;;;5014038;28;20042;-22
2022/01/10 04:53:50;;;;;;;8.38;7.32;;;14.80;66.80;;;;;;5015934;28;20038;-21
2022/01/10 04:56:16;;;;;;;7.95;7.20;;;14.80;66.80;;;;;;5015848;28;20069;-21
2022/01/10 04:58:42;;;;;;;7.65;6.85;;;14.90;66.90;;;;;;5016583;28;20062;-20
2022/01/10 05:01:08;;;;;;;7.55;6.85;;;14.90;66.80;;;;;;5015749;28;20056;-19
2022/01/10 05:03:34;;;;;;;7.32;6.63;;;14.80;66.80;;;;;;5016382;28;20064;-21
2022/01/10 05:06:00;;;;;;;7.72;6.93;;;14.80;66.80;;;;;;5016458;28;20049;-20
2022/01/10 05:08:26;;;;;;;8.38;7.57;;;14.80;66.90;;;;;;5015615;28;20125;-19
2022/01/10 05:10:51;;;;;;;7.32;6.63;;;14.80;66.90;;;;;;5015832;28;20073;-21
2022/01/10 05:13:18;;;;;;;8.25;7.05;;;14.80;66.80;;;;;;5015158;28;20041;-21
2022/01/10 05:15:46;;;;;;;6.70;6.10;;;14.80;66.90;;;;;;5016017;28;20052;-21
2022/01/10 05:18:13;;;;;;;6.80;6.18;;;14.80;67.00;;;;;;5015566;28;20178;-21
2022/01/10 05:20:38;;;;;;;7.35;6.70;;;14.80;66.80;;;;;;5016238;28;20502;-21
2022/01/10 05:23:04;;;;;;;6.70;6.10;;;14.80;67.00;;;;;;5016265;28;20145;-20
2022/01/10 05:25:29;;;;;;;7.35;6.70;;;14.80;67.10;;;;;;5015146;28;20112;-20
2022/01/10 05:27:55;;;;;;;6.72;6.13;;;14.80;67.10;;;;;;5015893;28;20041;-21
2022/01/10 05:30:21;;;;;;;6.70;6.10;;;14.80;66.90;;;;;;5015351;28;20054;-19
2022/01/10 05:32:46;;;;;;;6.90;6.30;;;14.80;66.90;;;;;;5015972;28;20049;-20
2022/01/10 05:35:12;;;;;;;6.90;6.30;;;14.80;66.90;;;;;;5015794;28;20056;-21
2022/01/10 05:37:37;;;;;;;6.88;6.28;;;14.80;66.80;;;;;;5015614;28;20054;-21
2022/01/10 05:40:03;;;;;;;6.40;5.90;;;14.80;66.80;;;;;;5015861;28;20114;-19
2022/01/10 05:42:29;;;;;;;6.32;5.78;;;14.80;66.90;;;;;;5014812;28;20077;-22
2022/01/10 05:44:55;;;;;;;7.03;6.43;;;14.80;66.80;;;;;;5014807;28;20429;-20
2022/01/10 05:47:20;;;;;;;6.50;6.00;;;14.90;66.90;;;;;;5012536;28;20062;-19
2022/01/10 05:49:48;;;;;;;6.15;5.65;;;14.80;66.80;;;;;;5014099;28;20072;-20
2022/01/10 05:52:14;;;;;;;6.30;5.80;;;14.80;66.80;;;;;;5014601;28;20046;-21
2022/01/10 05:54:40;;;;;;;6.57;6.07;;;14.90;66.70;;;;;;5015849;28;20049;-21
2022/01/10 05:57:06;;;;;;;6.72;6.18;;;14.90;66.70;;;;;;5015393;28;20046;-21
2022/01/10 05:59:31;;;;;;;5.97;5.57;;;14.90;66.60;;;;;;5014938;28;20049;-21
2022/01/10 06:01:57;;;;;;;6.63;6.07;;;14.90;66.60;;;;;;5014770;28;20184;-21
2022/01/10 06:04:23;;;;;;;6.47;5.97;;;14.80;66.80;;;;;;5014574;28;20561;-22
2022/01/10 06:06:49;;;;;;;6.22;5.72;;;14.80;67.20;;;;;;5015834;28;20049;-21
2022/01/10 06:09:15;;;;;;;7.05;6.45;;;14.80;67.20;;;;;;5014715;28;20195;-21
2022/01/10 06:11:40;;;;;;;6.40;5.88;;;14.80;67.80;;;;;;5015530;28;20057;-20
2022/01/10 06:14:07;;;;;;;7.68;6.85;;;14.70;67.80;;;;;;5015344;28;20713;-21
2022/01/10 06:16:33;;;;;;;5.72;5.22;;;14.80;67.60;;;;;;5015288;28;20049;-21
2022/01/10 06:18:59;;;;;;;5.47;4.97;;;14.80;68.00;;;;;;5015429;28;20107;-21
2022/01/10 06:21:24;;;;;;;5.90;5.45;;;14.80;68.00;;;;;;5014484;28;20046;-21
2022/01/10 06:23:50;;;;;;;5.40;5.00;;;14.80;67.90;;;;;;5014898;28;20042;-20
2022/01/10 06:26:16;;;;;;;9.73;8.13;;;14.80;67.80;;;;;;5014913;28;20289;-20
2022/01/10 06:28:41;;;;;;;9.48;8.57;;;14.80;67.90;;;;;;5015909;28;20038;-20
2022/01/10 06:31:07;;;;;;;8.70;7.85;;;14.80;67.80;;;;;;5007216;28;20061;-21
2022/01/10 06:33:33;;;;;;;9.43;8.63;;;14.80;67.90;;;;;;5000269;28;20056;-21
2022/01/10 06:35:58;;;;;;;10.52;9.52;;;14.80;67.80;;;;;;4995899;28;20036;-21
2022/01/10 06:38:24;;;;;;;10.23;9.30;;;14.80;68.00;;;;;;4995364;28;20522;-21
2022/01/10 06:40:49;;;;;;;9.48;8.68;;;14.80;68.30;;;;;;4995520;28;20069;-19
2022/01/10 06:43:15;;;;;;;10.23;9.23;;;14.80;68.30;;;;;;4994789;28;20050;-20
2022/01/10 06:45:40;;;;;;;10.20;9.30;;;14.80;68.20;;;;;;4996067;28;20571;-21
2022/01/10 06:48:06;;;;;;;9.73;8.90;;;14.80;68.50;;;;;;4995604;28;20110;-21
2022/01/10 06:50:32;;;;;;;10.55;9.60;;;14.90;68.40;;;;;;4994520;28;20047;-22
2022/01/10 06:52:58;;;;;;;9.88;8.88;;;14.90;68.50;;;;;;4994981;28;20137;-24
2022/01/10 06:55:24;;;;;;;9.82;8.23;;;14.90;68.50;;;;;;4998145;28;20513;-25
2022/01/10 06:57:49;;;;;;;9.60;8.80;;;15.00;68.20;;;;;;5029070;28;20454;-21
2022/01/10 07:00:15;;;;;;;9.07;8.32;;;15.00;68.20;;;;;;4996653;28;20049;-21
2022/01/10 07:02:43;;;;;;;8.45;7.82;;;15.10;69.10;;;;;;4998303;28;20027;-22
2022/01/10 07:05:09;;;;;;;9.57;8.65;;;15.10;69.10;;;;;;5004856;28;20084;-22
2022/01/10 07:07:34;;;;;;;8.30;7.60;;;15.10;69.30;;;;;;5005785;28;20050;-23
2022/01/10 07:10:00;;;;;;;8.40;7.53;;;15.10;69.50;;;;;;4999232;28;20056;-23
2022/01/10 07:12:25;;;;;;;8.88;8.02;;;15.10;69.60;;;;;;5000515;28;20026;-21
2022/01/10 07:14:51;;;;;;;9.95;8.50;;;15.20;69.60;;;;;;4991206;28;20023;-21
2022/01/10 07:17:16;;;;;;;8.48;7.78;;;15.20;69.50;;;;;;4998003;28;20047;-21
2022/01/10 07:19:42;;;;;;;10.30;8.70;;;15.10;69.80;;;;;;4997240;28;20049;-20
2022/01/10 07:22:08;;;;;;;9.73;8.73;;;15.00;70.60;;;;;;4994787;28;20440;-21
2022/01/10 07:24:33;;;;;;;10.35;9.10;;;15.10;70.70;;;;;;4997347;28;20116;-22
2022/01/10 07:26:59;;;;;;;8.82;8.07;;;15.10;70.30;;;;;;4998541;28;20046;-22
2022/01/10 07:29:24;;;;;;;10.55;7.90;;;15.10;70.00;;;;;;4999789;28;20045;-19
2022/01/10 07:31:50;;;;;;;11.05;8.10;;;15.10;70.00;;;;;;5017721;28;20061;-21
2022/01/10 07:34:16;;;;;;;12.90;8.30;;;15.10;70.10;;;;;;5016534;28;20049;-21
2022/01/10 07:36:42;;;;;;;9.10;8.07;;;15.10;69.80;;;;;;5003558;28;20120;-19
2022/01/10 07:39:08;;;;;;;8.50;7.65;;;15.20;69.60;;;;;;4996073;28;20046;-31
2022/01/10 07:41:33;;;;;;;12.00;7.53;;;15.20;69.80;;;;;;4996459;28;20500;-21
2022/01/10 07:43:59;;;;;;;9.38;8.15;;;15.30;69.70;;;;;;4996881;28;20057;-22
2022/01/10 07:46:26;;;;;;;11.98;7.70;;;15.30;69.60;;;;;;4995458;28;20543;-20
2022/01/10 07:48:54;;;;;;;13.80;8.15;;;15.20;70.10;;;;;;4997706;28;20125;-22
2022/01/10 07:51:19;;;;;;;9.45;7.68;;;15.20;70.50;;;;;;4997659;28;20411;-21
2022/01/10 07:53:45;;;;;;;8.85;7.70;;;15.20;70.80;;;;;;4998277;28;20137;-20
2022/01/10 07:56:11;;;;;;;12.70;7.38;;;15.20;71.30;;;;;;4998346;28;20129;-19
2022/01/10 07:58:36;;;;;;;8.63;6.80;;;15.30;70.50;;;;;;5001558;28;20045;-21
2022/01/10 08:01:02;;;;;;;8.52;7.70;;;15.20;70.50;;;;;;4999492;28;20483;-20
2022/01/10 08:03:28;;;;;;;7.20;6.55;;;15.20;70.70;;;;;;4998119;28;20458;-21
2022/01/10 08:05:53;;;;;;;11.35;7.30;;;15.10;70.70;;;;;;4998755;28;20046;-21
2022/01/10 08:08:19;;;;;;;7.55;6.70;;;15.20;70.90;;;;;;4997829;28;20058;-21
2022/01/10 08:10:44;;;;;;;7.30;6.60;;;15.10;70.70;;;;;;4997592;28;20054;-22
2022/01/10 08:13:10;;;;;;;7.18;6.38;;;15.10;70.70;;;;;;4997841;28;20491;-20
2022/01/10 08:15:36;;;;;;;8.05;6.80;;;15.10;70.90;;;;;;4998621;28;20070;-20
2022/01/10 08:18:02;;;;;;;10.18;6.70;;;15.10;71.00;;;;;;4998512;28;20034;-22
2022/01/10 08:20:27;;;;;;;8.55;6.32;;;15.10;71.10;;;;;;4997430;28;20051;-21
2022/01/10 08:22:53;;;;;;;6.55;5.95;;;15.10;71.00;;;;;;4997765;28;20042;-21
2022/01/10 08:25:18;;;;;;;8.35;6.60;;;15.10;71.00;;;;;;4997485;28;20046;-22
2022/01/10 08:27:44;;;;;;;7.90;6.05;;;15.10;71.00;;;;;;4999393;28;20018;-19
2022/01/10 08:30:10;;;;;;;8.70;5.43;;;15.10;70.90;;;;;;4998787;28;20026;-21
2022/01/10 08:32:36;;;;;;;10.07;6.25;;;15.10;71.00;;;;;;4999413;28;20027;-20
2022/01/10 08:35:02;;;;;;;8.43;5.90;;;15.10;71.00;;;;;;4999440;28;20027;-21
2022/01/10 08:37:28;;;;;;;5.88;5.38;;;15.10;70.70;;;;;;4997480;28;20052;-21
2022/01/10 08:39:53;;;;;;;6.25;5.60;;;15.20;71.00;;;;;;4997619;28;20129;-21
2022/01/10 08:42:19;;;;;;;6.68;6.07;;;15.20;70.80;;;;;;4997957;28;20034;-20
2022/01/10 08:44:45;;;;;;;7.43;6.50;;;15.20;70.20;;;;;;4997948;28;20049;-20
2022/01/10 08:47:11;;;;;;;7.38;5.95;;;15.20;70.60;;;;;;4997410;28;20046;-20
2022/01/10 08:49:36;;;;;;;7.95;6.32;;;15.20;70.70;;;;;;4998016;28;20102;-22
2022/01/10 08:52:02;;;;;;;12.93;8.27;;;15.10;70.70;;;;;;4997004;28;20050;-22
2022/01/10 08:54:28;;;;;;;9.40;7.57;;;15.10;71.10;;;;;;4997781;28;20049;-20
2022/01/10 08:56:54;;;;;;;7.10;6.20;;;15.20;70.70;;;;;;5012856;28;20415;-20
2022/01/10 08:59:20;;;;;;;7.45;6.15;;;15.20;69.50;;;;;;5017370;28;20045;-21
2022/01/10 09:01:46;;;;;;;7.40;6.75;;;15.20;70.40;;;;;;5017163;28;20046;-21
2022/01/10 09:04:16;;;;;;;8.63;7.18;;;15.20;70.50;;;;;;5016985;28;20099;-25
2022/01/10 09:06:45;;;;;;;6.95;6.35;;;15.20;70.60;;;;;;5016506;28;20046;-22
2022/01/10 09:09:11;;;;;;;7.60;6.28;;;15.20;70.40;;;;;;5015087;28;20054;-21
2022/01/10 09:11:37;;;;;;;6.32;5.82;;;15.20;70.50;;;;;;5016989;28;20129;-23
2022/01/10 09:14:03;;;;;;;7.25;6.22;;;15.20;70.30;;;;;;5016434;28;20125;-21
2022/01/10 09:16:28;;;;;;;8.38;6.50;;;15.20;70.30;;;;;;5017182;28;20113;-21
2022/01/10 09:18:54;;;;;;;7.47;6.28;;;15.20;70.40;;;;;;5017130;28;20583;-22
2022/01/10 09:21:20;;;;;;;6.05;5.45;;;15.40;70.20;;;;;;5016128;28;20042;-21
2022/01/10 09:23:45;;;;;;;6.80;6.13;;;15.30;69.80;;;;;;5016306;28;20038;-21
2022/01/10 09:26:11;;;;;;;7.15;6.35;;;15.20;70.20;;;;;;5016147;28;20042;-22
2022/01/10 09:28:36;;;;;;;6.38;5.75;;;15.30;69.90;;;;;;5016505;28;20058;-21
2022/01/10 09:31:02;;;;;;;6.32;5.78;;;15.20;69.90;;;;;;5015829;28;20108;-21
2022/01/10 09:33:28;;;;;;;6.60;6.00;;;15.20;70.00;;;;;;5016487;28;20045;-21
2022/01/10 09:35:53;;;;;;;6.00;5.50;;;15.30;70.00;;;;;;5016806;28;20049;-21
2022/01/10 09:38:19;;;;;;;6.82;5.47;;;15.30;70.00;;;;;;5015805;28;20042;-22
2022/01/10 09:40:44;;;;;;;6.55;5.95;;;15.40;69.50;;;;;;5016732;28;20041;-23
2022/01/10 09:43:10;;;;;;;6.15;5.55;;;15.40;69.60;;;;;;4997845;28;20184;-21
2022/01/10 09:45:36;;;;;;;5.88;5.32;;;15.40;69.30;;;;;;4977065;28;20046;-22
2022/01/10 09:48:01;;;;;;;6.47;5.88;;;15.50;68.80;;;;;;4971672;28;20100;-21
2022/01/10 09:50:27;;;;;;;6.13;5.60;;;15.50;68.70;;;;;;4967518;28;20146;-19
2022/01/10 09:52:53;;;;;;;5.43;5.03;;;15.60;68.70;;;;;;4970125;28;20053;-18
2022/01/10 09:55:18;;;;;;;6.18;5.57;;;15.60;68.60;;;;;;4970690;28;20137;-20
2022/01/10 09:57:44;;;;;;;6.28;5.60;;;15.60;68.50;;;;;;4970708;28;20082;-21
2022/01/10 10:00:10;;;;;;;5.72;5.22;;;15.60;68.50;;;;;;4968534;28;20043;-21
2022/01/10 10:02:36;;;;;;;5.47;5.05;;;15.70;68.60;;;;;;4971269;28;20126;-21
2022/01/10 10:05:04;;;;;;;6.40;4.70;;;15.70;68.60;;;;;;4966167;28;20078;-20
2022/01/10 10:07:30;;;;;;;5.45;4.97;;;15.70;68.70;;;;;;4972449;28;20046;-20
2022/01/10 10:09:59;;;;;;;5.60;5.20;;;15.70;68.60;;;;;;4969955;28;20058;-21
2022/01/10 10:12:27;;;;;;;6.15;5.57;;;15.80;68.60;;;;;;4964711;28;20585;-21
2022/01/10 10:14:53;;;;;;;6.68;4.90;;;15.80;68.50;;;;;;4974938;28;20046;-20
2022/01/10 10:17:20;;;;;;;5.72;5.22;;;15.70;68.60;;;;;;4976863;28;20104;-23
2022/01/10 10:19:46;;;;;;;4.68;4.28;;;15.80;68.80;;;;;;4987762;28;20046;-21
2022/01/10 10:22:14;;;;;;;5.60;4.60;;;15.80;67.40;;;;;;4994933;28;20042;-23
2022/01/10 10:24:40;;;;;;;4.60;4.20;;;15.80;67.60;;;;;;4995072;28;20180;-22
2022/01/10 10:27:05;;;;;;;4.95;4.53;;;15.80;67.90;;;;;;4995635;28;20077;-21
2022/01/10 10:29:31;;;;;;;4.65;4.35;;;15.80;67.80;;;;;;4996253;28;20053;-22
2022/01/10 10:31:57;;;;;;;4.70;4.40;;;15.80;67.90;;;;;;4995251;28;20046;-20
2022/01/10 10:34:27;;;;;;;5.25;4.65;;;15.80;68.00;;;;;;4995951;28;20100;-20
2022/01/10 10:37:13;;;;;;;4.70;4.30;;;15.90;68.90;;;;;;4997077;28;20110;-22
2022/01/10 10:39:43;;;;;;;4.63;4.32;;;15.90;68.10;;;;;;5015255;28;20057;-23
2022/01/10 10:42:10;;;;;;;4.53;4.22;;;15.90;68.30;;;;;;5014988;28;20070;-22
2022/01/10 10:44:36;;;;;;;5.00;4.53;;;15.90;68.20;;;;;;5016261;28;20033;-23
2022/01/10 10:47:03;;;;;;;5.30;4.25;;;15.90;68.40;;;;;;5013755;28;20131;-23
2022/01/10 10:49:33;;;;;;;4.55;4.22;;;15.90;68.40;;;;;;5019762;28;20076;-20
2022/01/10 10:52:05;;;;;;;4.07;3.78;;;15.90;68.40;;;;;;5015814;28;20149;-25
2022/01/10 10:54:32;;;;;;;5.22;4.03;;;15.90;68.40;;;;;;5016495;28;20030;-25
2022/01/10 10:56:58;;;;;;;4.28;3.97;;;16.00;68.40;;;;;;5015995;28;20434;-21
2022/01/10 10:59:28;;;;;;;5.55;4.90;;;16.00;68.50;;;;;;5014561;28;20046;-20
2022/01/10 11:01:55;;;;;;;4.68;4.28;;;16.00;68.50;;;;;;5015574;28;20042;-20
2022/01/10 11:04:20;;;;;;;5.15;4.78;;;16.00;68.60;;;;;;5014320;28;20096;-19
2022/01/10 11:06:46;;;;;;;4.68;4.38;;;16.00;68.50;;;;;;5015246;28;20489;-18
2022/01/10 11:09:13;;;;;;;5.32;4.25;;;16.00;68.60;;;;;;5020186;28;20483;-21
2022/01/10 11:11:39;;;;;;;4.55;3.97;;;16.00;68.50;;;;;;4995664;28;20061;-19
2022/01/10 11:14:05;;;;;;;4.07;3.88;;;16.00;68.70;;;;;;4995259;28;20066;-20
2022/01/10 11:16:31;;;;;;;4.25;3.90;;;15.90;68.60;;;;;;5010824;28;20046;-22
2022/01/10 11:18:57;;;;;;;3.78;3.45;;;15.90;68.70;;;;;;4995752;28;20054;-21
2022/01/10 11:21:25;;;;;;;3.90;3.60;;;15.90;68.60;;;;;;4995119;28;20047;-20
2022/01/10 11:23:52;;;;;;;3.22;3.03;;;15.90;68.60;;;;;;4995675;28;20054;-19
2022/01/10 11:26:18;;;;;;;4.10;3.78;;;16.00;68.70;;;;;;4995156;28;20234;-19
2022/01/10 11:28:54;;;;;;;4.15;3.88;;;15.90;68.80;;;;;;4995636;28;20046;-21
2022/01/10 11:31:29;;;;;;;3.50;3.30;;;15.90;68.90;;;;;;4994992;28;20046;-21
2022/01/10 11:33:55;;;;;;;3.15;2.95;;;15.90;68.90;;;;;;4995714;28;20042;-20
2022/01/10 11:36:24;;;;;;;3.22;3.03;;;15.90;68.80;;;;;;4994868;28;20042;-20
2022/01/10 11:39:00;;;;;;;3.53;3.33;;;15.90;68.70;;;;;;4995641;28;20038;-21
2022/01/10 11:41:32;;;;;;;3.10;2.90;;;15.90;68.90;;;;;;4994753;28;20070;-20
2022/01/10 11:44:13;;;;;;;3.30;3.10;;;15.90;68.80;;;;;;4995676;28;20062;-22
2022/01/10 11:46:48;;;;;;;3.28;2.97;;;15.90;68.80;;;;;;4665020;28;10000589;-19
2022/01/10 11:49:13;;;;;;;3.13;2.92;;;15.90;68.80;;;;;;5007540;28;20044;-21
2022/01/10 11:51:49;;;;;;;3.03;2.83;;;15.90;69.00;;;;;;5014551;28;20049;-21
2022/01/10 11:54:26;;;;;;;3.13;2.92;;;15.90;69.00;;;;;;4991697;28;20066;-22
2022/01/10 11:56:56;;;;;;;2.90;2.70;;;15.90;68.90;;;;;;4994748;28;20046;-18
2022/01/10 11:59:22;;;;;;;3.05;2.85;;;15.90;69.20;;;;;;4994590;28;20046;-21
2022/01/10 12:02:04;;;;;;;2.88;2.67;;;15.80;68.90;;;;;;4994902;28;20046;-19
2022/01/10 12:04:31;;;;;;;2.80;2.60;;;15.90;68.80;;;;;;5005370;28;20057;-21
2022/01/10 12:06:57;;;;;;;2.65;2.45;;;15.90;69.00;;;;;;5013990;28;20445;-21
2022/01/10 12:09:23;;;;;;;2.78;2.40;;;15.80;69.10;;;;;;5013143;28;20056;-21
2022/01/10 12:11:50;;;;;;;2.50;2.33;;;15.80;69.20;;;;;;5014260;28;20050;-21
2022/01/10 12:14:16;;;;;;;2.67;2.47;;;15.80;69.30;;;;;;5013541;28;20052;-19
2022/01/10 12:16:43;;;;;;;2.45;2.33;;;15.80;70.10;;;;;;5014308;28;20062;-21
2022/01/10 12:19:08;;;;;;;2.13;2.03;;;15.80;69.30;;;;;;5012891;28;20481;-20
2022/01/10 12:21:34;;;;;;;2.25;2.15;;;15.80;69.30;;;;;;5013531;28;20054;-21
2022/01/10 12:24:00;;;;;;;2.80;2.60;;;15.70;69.40;;;;;;5014153;28;20058;-20
2022/01/10 12:26:26;;;;;;;2.58;2.38;;;15.80;69.30;;;;;;5013557;28;20065;-23
2022/01/10 12:29:01;;;;;;;2.45;2.25;;;15.70;69.40;;;;;;5016170;28;20074;-21
2022/01/10 12:31:29;;;;;;;2.13;2.03;;;15.80;69.40;;;;;;4997708;28;20116;-19
2022/01/10 12:33:55;;;;;;;1.90;1.80;;;15.80;70.00;;;;;;4998488;28;20042;-20
2022/01/10 12:36:22;;;;;;;2.35;2.25;;;15.90;69.30;;;;;;5008354;28;20050;-22
2022/01/10 12:38:57;;;;;;;2.50;2.40;;;15.80;69.10;;;;;;5008955;28;21226;-21
2022/01/10 12:41:23;;;;;;;2.45;2.25;;;15.80;69.20;;;;;;5005747;28;20046;-21
2022/01/10 12:43:49;;;;;;;2.80;2.60;;;15.80;69.20;;;;;;5010364;28;20403;-21